createdAt,value
2023-03-21T00:00:13.100Z,25.67
2023-03-21T00:00:43.064Z,25.67
2023-03-21T00:01:13.180Z,25.67
2023-03-21T00:01:43.290Z,25.67
2023-03-21T00:02:13.491Z,25.69
2023-03-21T00:02:43.511Z,25.68
2023-03-21T00:03:13.511Z,25.68
2023-03-21T00:03:43.668Z,25.69
2023-03-21T00:04:13.823Z,25.69
2023-03-21T00:04:51.240Z,25.68
2023-03-21T00:05:16.064Z,25.68
2023-03-21T00:05:43.721Z,25.67
2023-03-21T00:06:13.735Z,25.68
2023-03-21T00:06:43.719Z,25.68
2023-03-21T00:07:13.840Z,25.69
2023-03-21T00:07:43.948Z,25.71
2023-03-21T00:08:14.056Z,25.68
2023-03-21T00:08:44.170Z,25.69
2023-03-21T00:09:14.278Z,25.68
2023-03-21T00:09:44.396Z,25.67
2023-03-21T00:10:19.620Z,25.72
2023-03-21T00:10:44.553Z,25.68
2023-03-21T00:11:14.636Z,25.68
2023-03-21T00:11:44.753Z,25.68
2023-03-21T00:12:14.862Z,25.69
2023-03-21T00:12:44.985Z,25.69
2023-03-21T00:13:15.098Z,25.71
2023-03-21T00:13:45.201Z,25.69
2023-03-21T00:14:15.264Z,25.69
2023-03-21T00:14:45.232Z,25.69
2023-03-21T00:15:15.330Z,25.71
2023-03-21T00:15:54.172Z,25.72
2023-03-21T00:16:25.703Z,25.71
2023-03-21T00:16:45.452Z,25.68
2023-03-21T00:17:15.521Z,25.71
2023-03-21T00:17:45.558Z,25.69
2023-03-21T00:18:15.675Z,25.72
2023-03-21T00:18:45.787Z,25.71
2023-03-21T00:19:15.950Z,25.69
2023-03-21T00:19:45.959Z,25.71
2023-03-21T00:20:16.033Z,25.71
2023-03-21T00:20:46.152Z,25.71
2023-03-21T00:22:03.655Z,25.72
2023-03-21T00:22:16.142Z,25.69
2023-03-21T00:22:46.164Z,25.71
2023-03-21T00:23:16.252Z,25.69
2023-03-21T00:23:46.296Z,25.72
2023-03-21T00:24:16.311Z,25.71
2023-03-21T00:24:46.354Z,25.71
2023-03-21T00:25:16.364Z,25.72
2023-03-21T00:25:46.393Z,25.72
2023-03-21T00:26:16.417Z,25.69
2023-03-21T00:26:46.440Z,25.71
2023-03-21T00:27:39.764Z,25.71
2023-03-21T00:28:05.212Z,25.71
2023-03-21T00:28:16.542Z,25.71
2023-03-21T00:28:46.569Z,25.71
2023-03-21T00:29:16.597Z,25.69
2023-03-21T00:29:46.607Z,25.71
2023-03-21T00:30:16.649Z,25.71
2023-03-21T00:30:46.669Z,25.71
2023-03-21T00:31:16.706Z,25.72
2023-03-21T00:31:46.736Z,25.69
2023-03-21T00:32:16.751Z,25.69
2023-03-21T00:32:55.516Z,25.71
2023-03-21T00:33:22.700Z,25.69
2023-03-21T00:33:46.849Z,25.69
2023-03-21T00:34:22.495Z,25.68
2023-03-21T00:34:57.637Z,25.71
2023-03-21T00:35:51.740Z,25.69
2023-03-21T00:36:02.608Z,25.67
2023-03-21T00:36:17.126Z,25.69
2023-03-21T00:36:47.202Z,25.68
2023-03-21T00:37:17.199Z,25.68
2023-03-21T00:37:47.222Z,25.69
2023-03-21T00:38:17.246Z,25.69
2023-03-21T00:38:47.282Z,25.68
2023-03-21T00:39:17.293Z,25.69
2023-03-21T00:39:47.363Z,25.67
2023-03-21T00:40:26.535Z,25.69
2023-03-21T00:40:49.196Z,25.68
2023-03-21T00:41:26.154Z,25.68
2023-03-21T00:41:47.568Z,25.68
2023-03-21T00:42:17.571Z,25.67
2023-03-21T00:42:47.599Z,25.67
2023-03-21T00:43:17.615Z,25.67
2023-03-21T00:43:47.644Z,25.67
2023-03-21T00:44:17.669Z,25.67
2023-03-21T00:44:47.907Z,25.67
2023-03-21T00:45:17.922Z,25.67
2023-03-21T00:45:47.840Z,25.65
2023-03-21T00:46:17.913Z,25.68
2023-03-21T00:47:04.257Z,25.67
2023-03-21T00:47:18.002Z,25.67
2023-03-21T00:47:48.189Z,25.68
2023-03-21T00:48:18.209Z,25.67
2023-03-21T00:48:48.219Z,25.65
2023-03-21T00:49:18.247Z,25.67
2023-03-21T00:49:48.268Z,25.68
2023-03-21T00:50:18.310Z,25.65
2023-03-21T00:50:48.330Z,25.65
2023-03-21T00:51:18.386Z,25.67
2023-03-21T00:51:48.383Z,25.68
2023-03-21T00:52:30.608Z,25.67
2023-03-21T00:52:48.449Z,25.67
2023-03-21T00:53:18.473Z,25.67
2023-03-21T00:53:48.498Z,25.64
2023-03-21T00:54:18.547Z,25.65
2023-03-21T00:54:48.553Z,25.64
2023-03-21T00:55:18.586Z,25.65
2023-03-21T00:55:48.596Z,25.68
2023-03-21T00:56:18.620Z,25.68
2023-03-21T00:56:48.673Z,25.65
2023-03-21T00:57:20.215Z,25.64
2023-03-21T00:57:56.221Z,25.67
2023-03-21T00:58:18.743Z,25.67
2023-03-21T00:58:48.756Z,25.64
2023-03-21T00:59:18.780Z,25.64
2023-03-21T00:59:48.807Z,25.64
2023-03-21T01:00:18.848Z,25.65
2023-03-21T01:00:48.896Z,25.67
2023-03-21T01:01:18.903Z,25.62
2023-03-21T01:01:48.982Z,25.65
2023-03-21T01:02:19.021Z,25.67
2023-03-21T01:02:51.827Z,25.65
2023-03-21T01:03:24.822Z,25.65
2023-03-21T01:03:49.181Z,25.65
2023-03-21T01:04:19.207Z,25.64
2023-03-21T01:04:49.232Z,25.65
2023-03-21T01:05:19.251Z,25.65
2023-03-21T01:05:49.288Z,25.65
2023-03-21T01:06:19.718Z,25.65
2023-03-21T01:06:49.457Z,25.65
2023-03-21T01:07:19.484Z,25.64
2023-03-21T01:07:49.491Z,25.65
2023-03-21T01:08:31.118Z,25.65
2023-03-21T01:08:53.598Z,25.62
2023-03-21T01:09:19.592Z,25.64
2023-03-21T01:09:49.692Z,25.64
2023-03-21T01:10:19.815Z,25.64
2023-03-21T01:10:49.801Z,25.64
2023-03-21T01:11:19.920Z,25.65
2023-03-21T01:11:50.026Z,25.64
2023-03-21T01:12:20.055Z,25.64
2023-03-21T01:12:50.168Z,25.62
2023-03-21T01:13:20.279Z,25.65
2023-03-21T01:13:56.204Z,25.65
2023-03-21T01:14:23.375Z,25.64
2023-03-21T01:14:50.457Z,25.62
2023-03-21T01:15:20.463Z,25.61
2023-03-21T01:15:50.484Z,25.65
2023-03-21T01:16:20.502Z,25.64
2023-03-21T01:16:50.476Z,25.65
2023-03-21T01:17:20.589Z,25.64
2023-03-21T01:17:50.703Z,25.64
2023-03-21T01:18:20.819Z,25.65
2023-03-21T01:18:50.927Z,25.64
2023-03-21T01:19:27.366Z,25.62
2023-03-21T01:19:52.324Z,25.65
2023-03-21T01:20:21.095Z,25.65
2023-03-21T01:20:51.113Z,25.65
2023-03-21T01:21:21.136Z,25.64
2023-03-21T01:21:51.160Z,25.62
2023-03-21T01:22:21.302Z,25.62
2023-03-21T01:22:51.180Z,25.65
2023-03-21T01:23:21.206Z,25.64
2023-03-21T01:23:51.241Z,25.64
2023-03-21T01:24:21.273Z,25.65
2023-03-21T01:24:56.892Z,25.65
2023-03-21T01:25:22.872Z,25.67
2023-03-21T01:25:51.412Z,25.64
2023-03-21T01:26:21.429Z,25.65
2023-03-21T01:26:51.462Z,25.64
2023-03-21T01:27:21.488Z,25.65
2023-03-21T01:27:51.518Z,25.64
2023-03-21T01:28:21.536Z,25.62
2023-03-21T01:28:51.567Z,25.65
2023-03-21T01:29:21.590Z,25.65
2023-03-21T01:29:51.609Z,25.65
2023-03-21T01:30:23.998Z,25.64
2023-03-21T01:30:51.741Z,25.65
2023-03-21T01:31:21.802Z,25.64
2023-03-21T01:31:51.887Z,25.67
2023-03-21T01:32:21.953Z,25.65
2023-03-21T01:32:51.950Z,25.64
2023-03-21T01:33:21.971Z,25.64
2023-03-21T01:33:52.030Z,25.61
2023-03-21T01:34:22.103Z,25.62
2023-03-21T01:34:52.131Z,25.62
2023-03-21T01:35:22.184Z,25.65
2023-03-21T01:36:03.134Z,25.62
2023-03-21T01:36:23.902Z,25.65
2023-03-21T01:36:52.346Z,25.62
2023-03-21T01:37:22.356Z,25.62
2023-03-21T01:37:52.417Z,25.62
2023-03-21T01:38:22.418Z,25.62
2023-03-21T01:38:52.476Z,25.64
2023-03-21T01:39:22.514Z,25.65
2023-03-21T01:39:52.544Z,25.64
2023-03-21T01:40:22.594Z,25.61
2023-03-21T01:40:52.630Z,25.62
2023-03-21T01:41:26.196Z,25.64
2023-03-21T01:41:52.681Z,25.61
2023-03-21T01:42:22.709Z,25.64
2023-03-21T01:42:52.746Z,25.64
2023-03-21T01:43:22.756Z,25.62
2023-03-21T01:43:52.786Z,25.64
2023-03-21T01:44:22.811Z,25.64
2023-03-21T01:44:52.846Z,25.62
2023-03-21T01:45:22.867Z,25.61
2023-03-21T01:45:52.962Z,25.60
2023-03-21T01:46:23.073Z,25.64
2023-03-21T01:47:07.664Z,25.64
2023-03-21T01:47:23.120Z,25.65
2023-03-21T01:47:53.205Z,25.61
2023-03-21T01:48:23.237Z,25.61
2023-03-21T01:48:53.273Z,25.62
2023-03-21T01:49:23.298Z,25.61
2023-03-21T01:49:53.335Z,25.61
2023-03-21T01:50:23.358Z,25.64
2023-03-21T01:50:53.393Z,25.61
2023-03-21T01:51:23.435Z,25.65
2023-03-21T01:51:55.087Z,25.62
2023-03-21T01:52:35.327Z,25.62
2023-03-21T01:52:53.528Z,25.64
2023-03-21T01:53:23.579Z,25.62
2023-03-21T01:53:53.591Z,25.62
2023-03-21T01:54:23.660Z,25.64
2023-03-21T01:54:53.664Z,25.62
2023-03-21T01:55:23.688Z,25.64
2023-03-21T01:55:53.707Z,25.62
2023-03-21T01:56:23.735Z,25.61
2023-03-21T01:56:53.754Z,25.61
2023-03-21T01:57:25.898Z,25.62
2023-03-21T01:58:04.841Z,25.61
2023-03-21T01:58:23.873Z,25.61
2023-03-21T01:58:53.907Z,25.61
2023-03-21T01:59:23.960Z,25.62
2023-03-21T01:59:53.984Z,25.62
2023-03-21T02:00:24.007Z,25.64
2023-03-21T02:00:54.096Z,25.61
2023-03-21T02:01:24.118Z,25.62
2023-03-21T02:01:54.118Z,25.61
2023-03-21T02:02:24.149Z,25.61
2023-03-21T02:02:54.578Z,25.62
2023-03-21T02:03:35.246Z,25.60
2023-03-21T02:03:54.365Z,25.61
2023-03-21T02:04:24.406Z,25.62
2023-03-21T02:04:54.416Z,25.62
2023-03-21T02:05:24.461Z,25.60
2023-03-21T02:05:54.486Z,25.61
2023-03-21T02:06:24.516Z,25.61
2023-03-21T02:06:54.546Z,25.61
2023-03-21T02:07:24.588Z,25.61
2023-03-21T02:07:54.587Z,25.58
2023-03-21T02:08:36.747Z,25.61
2023-03-21T02:08:54.681Z,25.62
2023-03-21T02:09:24.660Z,25.62
2023-03-21T02:09:54.770Z,25.62
2023-03-21T02:10:24.883Z,25.62
2023-03-21T02:10:55.018Z,25.61
2023-03-21T02:11:24.991Z,25.62
2023-03-21T02:12:34.104Z,25.58
2023-03-21T02:13:04.186Z,25.60
2023-03-21T02:13:34.257Z,25.61
2023-03-21T02:14:07.003Z,25.58
2023-03-21T02:14:34.364Z,25.60
2023-03-21T02:15:04.431Z,25.58
2023-03-21T02:15:34.690Z,25.57
2023-03-21T02:16:04.610Z,25.58
2023-03-21T02:16:34.799Z,25.54
2023-03-21T02:17:04.752Z,25.57
2023-03-21T02:17:34.841Z,25.61
2023-03-21T02:18:04.920Z,25.58
2023-03-21T02:18:34.995Z,25.58
2023-03-21T02:19:05.075Z,25.58
2023-03-21T02:19:41.678Z,25.60
2023-03-21T02:20:05.262Z,25.60
2023-03-21T02:20:35.343Z,25.57
2023-03-21T02:21:05.420Z,25.54
2023-03-21T02:21:35.493Z,25.57
2023-03-21T02:22:05.601Z,25.58
2023-03-21T02:22:35.689Z,25.60
2023-03-21T02:23:05.808Z,25.57
2023-03-21T02:23:35.930Z,25.57
2023-03-21T02:24:05.932Z,25.55
2023-03-21T02:24:36.037Z,25.60
2023-03-21T02:25:10.770Z,25.57
2023-03-21T02:25:36.395Z,25.57
2023-03-21T02:26:06.117Z,25.60
2023-03-21T02:26:42.419Z,25.58
2023-03-21T02:27:06.241Z,25.57
2023-03-21T02:27:36.371Z,25.57
2023-03-21T02:28:06.354Z,25.60
2023-03-21T02:28:36.497Z,25.55
2023-03-21T02:29:06.572Z,25.58
2023-03-21T02:29:36.722Z,25.58
2023-03-21T02:30:06.706Z,25.58
2023-03-21T02:30:49.281Z,25.57
2023-03-21T02:31:06.770Z,25.60
2023-03-21T02:31:36.786Z,25.60
2023-03-21T02:32:20.012Z,25.60
2023-03-21T02:32:38.214Z,25.60
2023-03-21T02:33:06.801Z,25.58
2023-03-21T02:33:36.913Z,25.58
2023-03-21T02:34:07.028Z,25.58
2023-03-21T02:34:37.228Z,25.60
2023-03-21T02:35:07.194Z,25.60
2023-03-21T02:35:44.104Z,25.57
2023-03-21T02:36:13.833Z,25.60
2023-03-21T02:36:37.412Z,25.57
2023-03-21T02:37:07.388Z,25.58
2023-03-21T02:37:38.814Z,25.58
2023-03-21T02:38:07.560Z,25.60
2023-03-21T02:38:37.671Z,25.58
2023-03-21T02:39:07.801Z,25.60
2023-03-21T02:39:37.938Z,25.62
2023-03-21T02:40:07.913Z,25.58
2023-03-21T02:40:38.226Z,25.58
2023-03-21T02:41:18.046Z,25.60
2023-03-21T02:41:40.468Z,25.60
2023-03-21T02:42:08.099Z,25.61
2023-03-21T02:42:38.213Z,25.58
2023-03-21T02:43:16.988Z,25.61
2023-03-21T02:43:38.338Z,25.61
2023-03-21T02:44:08.448Z,25.61
2023-03-21T02:44:38.557Z,25.58
2023-03-21T02:45:08.690Z,25.61
2023-03-21T02:45:38.781Z,25.61
2023-03-21T02:46:08.957Z,25.61
2023-03-21T02:46:45.467Z,25.62
2023-03-21T02:47:09.073Z,25.60
2023-03-21T02:47:39.085Z,25.61
2023-03-21T02:48:14.576Z,25.62
2023-03-21T02:48:50.216Z,25.64
2023-03-21T02:49:09.163Z,25.60
2023-03-21T02:49:39.172Z,25.61
2023-03-21T02:50:09.148Z,25.61
2023-03-21T02:50:39.435Z,25.61
2023-03-21T02:51:09.346Z,25.62
2023-03-21T02:51:39.466Z,25.61
2023-03-21T02:52:17.043Z,25.64
2023-03-21T02:52:39.930Z,25.62
2023-03-21T02:53:09.567Z,25.60
2023-03-21T02:53:39.683Z,25.61
2023-03-21T02:54:28.327Z,25.61
2023-03-21T02:54:48.060Z,25.60
2023-03-21T02:55:09.822Z,25.61
2023-03-21T02:55:39.808Z,25.60
2023-03-21T02:56:09.936Z,25.61
2023-03-21T02:56:40.044Z,25.61
2023-03-21T02:57:10.151Z,25.61
2023-03-21T02:57:43.418Z,25.61
2023-03-21T02:58:13.228Z,25.61
2023-03-21T02:58:40.314Z,25.61
2023-03-21T02:59:10.314Z,25.58
2023-03-21T02:59:51.818Z,25.58
2023-03-21T03:00:16.223Z,25.60
2023-03-21T03:00:40.458Z,25.61
2023-03-21T03:01:10.636Z,25.60
2023-03-21T03:01:40.713Z,25.60
2023-03-21T03:02:10.736Z,25.58
2023-03-21T03:02:40.705Z,25.60
2023-03-21T03:03:18.004Z,25.60
2023-03-21T03:03:40.828Z,25.60
2023-03-21T03:04:10.960Z,25.60
2023-03-21T03:04:41.017Z,25.60
2023-03-21T03:05:20.353Z,25.58
2023-03-21T03:05:41.024Z,25.60
2023-03-21T03:06:11.131Z,25.60
2023-03-21T03:06:41.247Z,25.58
2023-03-21T03:07:11.360Z,25.60
2023-03-21T03:07:41.476Z,25.58
2023-03-21T03:08:11.583Z,25.60
2023-03-21T03:08:50.161Z,25.58
2023-03-21T03:09:11.732Z,25.57
2023-03-21T03:09:41.857Z,25.57
2023-03-21T03:10:11.950Z,25.57
2023-03-21T03:10:42.074Z,25.58
2023-03-21T03:11:12.174Z,25.58
2023-03-21T03:11:42.302Z,25.58
2023-03-21T03:12:12.396Z,25.58
2023-03-21T03:12:42.483Z,25.58
2023-03-21T03:13:12.557Z,25.60
2023-03-21T03:13:42.610Z,25.58
2023-03-21T03:14:35.665Z,25.60
2023-03-21T03:14:56.376Z,25.57
2023-03-21T03:15:12.924Z,25.57
2023-03-21T03:15:43.037Z,25.58
2023-03-21T03:16:13.165Z,25.58
2023-03-21T03:16:43.108Z,25.60
2023-03-21T03:17:13.202Z,25.58
2023-03-21T03:17:43.280Z,25.58
2023-03-21T03:18:13.359Z,25.57
2023-03-21T03:18:43.453Z,25.58
2023-03-21T03:19:13.521Z,25.57
2023-03-21T03:19:50.042Z,25.55
2023-03-21T03:20:17.370Z,25.57
2023-03-21T03:20:43.752Z,25.55
2023-03-21T03:21:13.831Z,25.58
2023-03-21T03:21:43.911Z,25.55
2023-03-21T03:22:14.000Z,25.55
2023-03-21T03:22:44.120Z,25.55
2023-03-21T03:23:14.180Z,25.58
2023-03-21T03:23:44.156Z,25.57
2023-03-21T03:24:14.265Z,25.57
2023-03-21T03:24:44.378Z,25.55
2023-03-21T03:25:23.124Z,25.55
2023-03-21T03:25:44.491Z,25.55
2023-03-21T03:26:14.613Z,25.57
2023-03-21T03:26:44.626Z,25.55
2023-03-21T03:27:14.608Z,25.57
2023-03-21T03:27:44.728Z,25.55
2023-03-21T03:28:14.843Z,25.55
2023-03-21T03:28:44.952Z,25.57
2023-03-21T03:29:15.068Z,25.57
2023-03-21T03:29:45.177Z,25.57
2023-03-21T03:30:15.319Z,25.55
2023-03-21T03:31:00.911Z,25.55
2023-03-21T03:31:15.864Z,25.55
2023-03-21T03:31:45.395Z,25.55
2023-03-21T03:32:15.376Z,25.55
2023-03-21T03:32:45.484Z,25.54
2023-03-21T03:33:15.598Z,25.55
2023-03-21T03:33:45.708Z,25.55
2023-03-21T03:34:15.829Z,25.55
2023-03-21T03:34:45.942Z,25.55
2023-03-21T03:35:16.051Z,25.55
2023-03-21T03:35:48.303Z,25.57
2023-03-21T03:36:30.486Z,25.52
2023-03-21T03:36:46.269Z,25.54
2023-03-21T03:37:16.241Z,25.57
2023-03-21T03:37:46.233Z,25.55
2023-03-21T03:38:16.351Z,25.52
2023-03-21T03:38:46.452Z,25.54
2023-03-21T03:39:16.574Z,25.54
2023-03-21T03:39:46.684Z,25.54
2023-03-21T03:40:16.811Z,25.55
2023-03-21T03:40:46.934Z,25.54
2023-03-21T03:41:17.089Z,25.55
2023-03-21T03:42:27.455Z,25.54
2023-03-21T03:42:47.152Z,25.54
2023-03-21T03:43:17.289Z,25.54
2023-03-21T03:43:47.273Z,25.55
2023-03-21T03:44:17.387Z,25.54
2023-03-21T03:44:47.505Z,25.55
2023-03-21T03:45:17.612Z,25.57
2023-03-21T03:45:47.725Z,25.58
2023-03-21T03:46:17.880Z,25.55
2023-03-21T03:46:47.932Z,25.55
2023-03-21T03:47:31.708Z,25.52
2023-03-21T03:47:56.879Z,25.55
2023-03-21T03:48:17.979Z,25.54
2023-03-21T03:48:47.947Z,25.52
2023-03-21T03:49:18.114Z,25.54
2023-03-21T03:49:48.125Z,25.54
2023-03-21T03:50:18.108Z,25.54
2023-03-21T03:50:48.225Z,25.55
2023-03-21T03:51:18.341Z,25.55
2023-03-21T03:51:48.455Z,25.55
2023-03-21T03:52:18.455Z,25.55
2023-03-21T03:52:56.115Z,25.54
2023-03-21T03:53:18.903Z,25.54
2023-03-21T03:53:48.554Z,25.52
2023-03-21T03:54:18.676Z,25.54
2023-03-21T03:54:48.786Z,25.54
2023-03-21T03:55:18.938Z,25.52
2023-03-21T03:55:48.912Z,25.55
2023-03-21T03:56:19.046Z,25.52
2023-03-21T03:56:49.217Z,25.55
2023-03-21T03:57:19.212Z,25.55
2023-03-21T03:57:49.317Z,25.54
2023-03-21T03:58:24.051Z,25.57
2023-03-21T03:58:49.445Z,25.54
2023-03-21T03:59:19.455Z,25.55
2023-03-21T03:59:49.556Z,25.54
2023-03-21T04:00:19.549Z,25.52
2023-03-21T04:00:49.691Z,25.54
2023-03-21T04:01:19.775Z,25.54
2023-03-21T04:01:49.960Z,25.57
2023-03-21T04:02:19.979Z,25.55
2023-03-21T04:02:49.965Z,25.54
2023-03-21T04:03:20.024Z,25.54
2023-03-21T04:03:56.253Z,25.54
2023-03-21T04:04:20.061Z,25.54
2023-03-21T04:04:50.104Z,25.54
2023-03-21T04:05:20.218Z,25.52
2023-03-21T04:05:50.347Z,25.55
2023-03-21T04:06:20.439Z,25.52
2023-03-21T04:06:50.570Z,25.54
2023-03-21T04:07:20.558Z,25.55
2023-03-21T04:07:50.680Z,25.52
2023-03-21T04:08:20.786Z,25.54
2023-03-21T04:08:50.916Z,25.55
2023-03-21T04:09:31.354Z,25.54
2023-03-21T04:09:51.020Z,25.52
2023-03-21T04:10:21.134Z,25.52
2023-03-21T04:10:51.244Z,25.52
2023-03-21T04:11:21.399Z,25.51
2023-03-21T04:11:51.422Z,25.51
2023-03-21T04:12:21.497Z,25.54
2023-03-21T04:12:51.561Z,25.55
2023-03-21T04:13:21.660Z,25.54
2023-03-21T04:13:51.726Z,25.51
2023-03-21T04:14:21.822Z,25.54
2023-03-21T04:14:53.259Z,25.52
2023-03-21T04:15:21.891Z,25.51
2023-03-21T04:15:51.997Z,25.52
2023-03-21T04:16:22.096Z,25.55
2023-03-21T04:16:52.129Z,25.52
2023-03-21T04:17:22.067Z,25.51
2023-03-21T04:17:52.141Z,25.54
2023-03-21T04:18:22.227Z,25.52
2023-03-21T04:18:52.297Z,25.52
2023-03-21T04:19:22.366Z,25.52
2023-03-21T04:20:00.001Z,25.52
2023-03-21T04:20:43.105Z,25.52
2023-03-21T04:20:52.640Z,25.51
2023-03-21T04:21:22.727Z,25.51
2023-03-21T04:21:52.846Z,25.49
2023-03-21T04:22:22.945Z,25.54
2023-03-21T04:22:53.050Z,25.52
2023-03-21T04:23:23.165Z,25.52
2023-03-21T04:23:53.284Z,25.52
2023-03-21T04:24:23.393Z,25.52
2023-03-21T04:24:53.526Z,25.51
2023-03-21T04:25:32.797Z,25.51
2023-03-21T04:25:56.992Z,25.51
2023-03-21T04:26:23.646Z,25.51
2023-03-21T04:26:53.837Z,25.51
2023-03-21T04:27:23.799Z,25.52
2023-03-21T04:27:53.926Z,25.49
2023-03-21T04:28:23.993Z,25.49
2023-03-21T04:28:53.985Z,25.51
2023-03-21T04:29:23.979Z,25.49
2023-03-21T04:29:54.070Z,25.52
2023-03-21T04:30:24.176Z,25.49
2023-03-21T04:31:02.497Z,25.51
2023-03-21T04:31:26.150Z,25.52
2023-03-21T04:31:54.278Z,25.51
2023-03-21T04:32:24.258Z,25.51
2023-03-21T04:32:54.368Z,25.51
2023-03-21T04:33:24.520Z,25.51
2023-03-21T04:33:54.508Z,25.52
2023-03-21T04:34:24.625Z,25.51
2023-03-21T04:34:54.685Z,25.48
2023-03-21T04:35:24.680Z,25.52
2023-03-21T04:35:54.803Z,25.49
2023-03-21T04:36:24.811Z,25.48
2023-03-21T04:36:54.894Z,25.49
2023-03-21T04:37:25.008Z,25.52
2023-03-21T04:37:55.125Z,25.52
2023-03-21T04:38:25.237Z,25.52
2023-03-21T04:38:55.349Z,25.52
2023-03-21T04:39:25.463Z,25.52
2023-03-21T04:39:55.579Z,25.52
2023-03-21T04:40:25.625Z,25.54
2023-03-21T04:40:55.673Z,25.55
2023-03-21T04:41:25.781Z,25.52
2023-03-21T04:41:55.936Z,25.55
2023-03-21T04:42:25.892Z,25.54
2023-03-21T04:42:56.011Z,25.58
2023-03-21T04:43:26.124Z,25.60
2023-03-21T04:43:56.233Z,25.58
2023-03-21T04:44:26.345Z,25.60
2023-03-21T04:44:56.465Z,25.58
2023-03-21T04:45:26.448Z,25.60
2023-03-21T04:45:56.575Z,25.61
2023-03-21T04:46:26.668Z,25.60
2023-03-21T04:46:56.785Z,25.58
2023-03-21T04:47:26.900Z,25.58
2023-03-21T04:47:57.057Z,25.58
2023-03-21T04:48:27.022Z,25.61
2023-03-21T04:48:57.144Z,25.58
2023-03-21T04:49:27.248Z,25.58
2023-03-21T04:49:57.387Z,25.58
2023-03-21T04:50:27.389Z,25.58
2023-03-21T04:50:57.500Z,25.61
2023-03-21T04:51:27.610Z,25.62
2023-03-21T04:51:57.721Z,25.62
2023-03-21T04:52:27.834Z,25.67
2023-03-21T04:52:57.945Z,25.67
2023-03-21T04:53:28.063Z,25.65
2023-03-21T04:53:58.170Z,25.69
2023-03-21T04:54:28.286Z,25.64
2023-03-21T04:54:58.743Z,25.67
2023-03-21T04:55:28.479Z,25.67
2023-03-21T04:55:58.588Z,25.68
2023-03-21T04:56:28.717Z,25.68
2023-03-21T04:56:58.730Z,25.72
2023-03-21T04:57:29.010Z,25.72
2023-03-21T04:57:58.869Z,25.74
2023-03-21T04:58:28.906Z,25.75
2023-03-21T04:58:58.889Z,25.76
2023-03-21T04:59:29.017Z,25.76
2023-03-21T04:59:58.999Z,25.79
2023-03-21T05:00:29.112Z,25.81
2023-03-21T05:00:59.243Z,25.81
2023-03-21T05:01:29.324Z,25.85
2023-03-21T05:01:59.302Z,25.86
2023-03-21T05:02:29.441Z,25.86
2023-03-21T05:02:59.418Z,25.88
2023-03-21T05:03:29.862Z,25.91
2023-03-21T05:03:59.650Z,25.93
2023-03-21T05:04:29.641Z,25.86
2023-03-21T05:04:59.795Z,25.88
2023-03-21T05:05:29.788Z,25.89
2023-03-21T05:05:59.895Z,25.89
2023-03-21T05:06:30.005Z,25.89
2023-03-21T05:07:00.155Z,25.91
2023-03-21T05:07:30.238Z,25.91
2023-03-21T05:08:00.228Z,25.92
2023-03-21T05:08:30.367Z,25.92
2023-03-21T05:09:00.450Z,25.92
2023-03-21T05:09:30.482Z,25.96
2023-03-21T05:10:02.446Z,25.92
2023-03-21T05:10:30.537Z,25.92
2023-03-21T05:11:00.687Z,25.95
2023-03-21T05:11:30.724Z,25.96
2023-03-21T05:12:00.742Z,25.99
2023-03-21T05:12:30.823Z,26.00
2023-03-21T05:13:00.914Z,26.05
2023-03-21T05:13:30.996Z,26.05
2023-03-21T05:14:01.111Z,26.06
2023-03-21T05:14:31.065Z,26.06
2023-03-21T05:15:01.158Z,26.06
2023-03-21T05:15:31.244Z,26.10
2023-03-21T05:16:01.309Z,26.10
2023-03-21T05:16:31.441Z,26.12
2023-03-21T05:17:01.517Z,26.15
2023-03-21T05:17:31.493Z,26.16
2023-03-21T05:18:01.577Z,26.15
2023-03-21T05:18:31.679Z,26.16
2023-03-21T05:19:01.766Z,26.16
2023-03-21T05:19:31.830Z,26.20
2023-03-21T05:20:01.935Z,26.20
2023-03-21T05:20:32.011Z,26.20
2023-03-21T05:21:02.092Z,26.24
2023-03-21T05:21:32.169Z,26.16
2023-03-21T05:22:02.290Z,26.15
2023-03-21T05:22:32.321Z,26.15
2023-03-21T05:23:02.334Z,26.19
2023-03-21T05:23:32.434Z,26.19
2023-03-21T05:24:02.425Z,26.22
2023-03-21T05:24:32.544Z,26.22
2023-03-21T05:25:02.655Z,26.23
2023-03-21T05:25:32.762Z,26.23
2023-03-21T05:26:02.888Z,26.27
2023-03-21T05:26:33.001Z,26.22
2023-03-21T05:27:03.134Z,26.22
2023-03-21T05:27:33.128Z,26.24
2023-03-21T05:28:03.123Z,26.23
2023-03-21T05:28:33.245Z,26.22
2023-03-21T05:29:03.237Z,26.23
2023-03-21T05:29:33.239Z,26.27
2023-03-21T05:30:03.358Z,26.24
2023-03-21T05:30:33.570Z,26.26
2023-03-21T05:31:10.348Z,26.27
2023-03-21T05:31:33.567Z,26.29
2023-03-21T05:32:03.650Z,26.29
2023-03-21T05:33:24.812Z,26.29
2023-03-21T05:33:42.668Z,26.29
2023-03-21T05:34:12.753Z,26.30
2023-03-21T05:34:42.946Z,26.34
2023-03-21T05:35:12.880Z,26.34
2023-03-21T05:35:42.988Z,26.33
2023-03-21T05:36:13.093Z,26.34
2023-03-21T05:36:43.173Z,26.39
2023-03-21T05:37:13.229Z,26.40
2023-03-21T05:37:43.300Z,26.42
2023-03-21T05:38:13.370Z,26.39
2023-03-21T05:38:43.452Z,26.42
2023-03-21T05:39:13.522Z,26.44
2023-03-21T05:39:43.649Z,26.43
2023-03-21T05:40:13.717Z,26.42
2023-03-21T05:40:43.793Z,26.46
2023-03-21T05:41:13.868Z,26.47
2023-03-21T05:41:43.932Z,26.48
2023-03-21T05:42:14.035Z,26.48
2023-03-21T05:42:44.090Z,26.50
2023-03-21T05:43:14.200Z,26.50
2023-03-21T05:43:44.324Z,26.51
2023-03-21T05:44:14.303Z,26.50
2023-03-21T05:44:44.455Z,26.50
2023-03-21T05:45:14.460Z,26.53
2023-03-21T05:45:44.443Z,26.51
2023-03-21T05:46:14.553Z,26.53
2023-03-21T05:46:44.679Z,26.54
2023-03-21T05:47:14.704Z,26.54
2023-03-21T05:47:44.909Z,26.53
2023-03-21T05:48:14.941Z,26.53
2023-03-21T05:48:44.912Z,26.54
2023-03-21T05:49:15.024Z,26.54
2023-03-21T05:49:45.152Z,26.55
2023-03-21T05:50:15.143Z,26.54
2023-03-21T05:50:45.264Z,26.51
2023-03-21T05:51:15.378Z,26.51
2023-03-21T05:51:45.531Z,26.46
2023-03-21T05:52:15.528Z,26.43
2023-03-21T05:52:45.672Z,26.42
2023-03-21T05:53:15.659Z,26.37
2023-03-21T05:53:45.777Z,26.33
2023-03-21T05:54:15.888Z,26.29
2023-03-21T05:54:45.997Z,26.26
2023-03-21T05:55:16.004Z,26.19
2023-03-21T05:55:45.995Z,26.13
2023-03-21T05:56:15.984Z,26.10
2023-03-21T05:56:46.097Z,26.07
2023-03-21T05:57:16.215Z,26.05
2023-03-21T05:57:46.309Z,25.99
2023-03-21T05:58:16.326Z,25.96
2023-03-21T05:58:46.389Z,25.92
2023-03-21T05:59:16.436Z,25.89
2023-03-21T05:59:46.479Z,25.85
2023-03-21T06:00:16.505Z,25.82
2023-03-21T06:00:46.557Z,25.78
2023-03-21T06:01:16.603Z,25.74
2023-03-21T06:01:46.651Z,25.72
2023-03-21T06:02:16.736Z,25.62
2023-03-21T06:02:46.798Z,25.57
2023-03-21T06:03:16.831Z,25.51
2023-03-21T06:03:46.898Z,25.47
2023-03-21T06:04:17.036Z,25.40
2023-03-21T06:04:47.062Z,25.38
2023-03-21T06:05:17.083Z,25.31
2023-03-21T06:05:47.110Z,25.30
2023-03-21T06:06:17.148Z,25.23
2023-03-21T06:06:47.189Z,25.19
2023-03-21T06:07:17.255Z,25.10
2023-03-21T06:07:47.272Z,25.00
2023-03-21T06:08:17.348Z,25.02
2023-03-21T06:08:47.388Z,24.99
2023-03-21T06:09:17.424Z,24.95
2023-03-21T06:09:47.468Z,24.90
2023-03-21T06:10:17.475Z,24.89
2023-03-21T06:10:47.480Z,24.86
2023-03-21T06:11:17.582Z,24.83
2023-03-21T06:11:47.692Z,24.79
2023-03-21T06:12:17.805Z,24.76
2023-03-21T06:12:47.917Z,24.69
2023-03-21T06:13:18.070Z,24.72
2023-03-21T06:13:48.033Z,24.66
2023-03-21T06:14:18.160Z,24.58
2023-03-21T06:14:48.143Z,24.56
2023-03-21T06:15:18.261Z,24.59
2023-03-21T06:15:48.449Z,24.55
2023-03-21T06:16:18.508Z,24.59
2023-03-21T06:16:48.500Z,24.56
2023-03-21T06:17:18.605Z,24.54
2023-03-21T06:17:48.714Z,24.54
2023-03-21T06:18:18.876Z,24.56
2023-03-21T06:18:48.871Z,24.51
2023-03-21T06:19:18.972Z,24.49
2023-03-21T06:19:48.969Z,24.48
2023-03-21T06:20:19.081Z,24.45
2023-03-21T06:20:49.115Z,24.45
2023-03-21T06:21:19.093Z,24.45
2023-03-21T06:21:49.191Z,24.42
2023-03-21T06:22:19.305Z,24.41
2023-03-21T06:22:49.412Z,24.41
2023-03-21T06:23:19.543Z,24.41
2023-03-21T06:23:49.524Z,24.38
2023-03-21T06:24:19.659Z,24.38
2023-03-21T06:24:49.666Z,24.38
2023-03-21T06:25:19.778Z,24.41
2023-03-21T06:25:49.766Z,24.38
2023-03-21T06:26:19.889Z,24.37
2023-03-21T06:26:49.996Z,24.31
2023-03-21T06:27:20.102Z,24.30
2023-03-21T06:27:50.216Z,24.30
2023-03-21T06:28:20.333Z,24.25
2023-03-21T06:28:50.342Z,24.25
2023-03-21T06:29:20.434Z,24.24